sensor_id;sensor_type;location;lat;lon;timestamp;pressure;altitude;pressure_sealevel;temperature;humidity
10946;BME280;5525;42.648;23.368;2022-10-24T00:00:42;95336.78;;;10.82;100.00
10946;BME280;5525;42.648;23.368;2022-10-24T00:03:11;95402.19;;;11.23;100.00
10946;BME280;5525;42.648;23.368;2022-10-24T00:05:40;95356.72;;;10.94;100.00
10946;BME280;5525;42.648;23.368;2022-10-24T00:08:08;95403.13;;;11.18;100.00
10946;BME280;5525;42.648;23.368;2022-10-24T00:10:35;95355.75;;;10.90;100.00
10946;BME280;5525;42.648;23.368;2022-10-24T00:13:02;95368.19;;;11.00;100.00
10946;BME280;5525;42.648;23.368;2022-10-24T00:15:29;95388.03;;;11.17;100.00
10946;BME280;5525;42.648;23.368;2022-10-24T00:17:56;95394.72;;;11.20;100.00
10946;BME280;5525;42.648;23.368;2022-10-24T00:20:24;95398.66;;;11.14;100.00
10946;BME280;5525;42.648;23.368;2022-10-24T00:22:51;95390.22;;;11.15;100.00
10946;BME280;5525;42.648;23.368;2022-10-24T00:25:18;95391.78;;;11.08;100.00
10946;BME280;5525;42.648;23.368;2022-10-24T00:27:45;95357.28;;;10.83;100.00
10946;BME280;5525;42.648;23.368;2022-10-24T00:30:12;95386.03;;;11.01;100.00
10946;BME280;5525;42.648;23.368;2022-10-24T00:32:39;95383.63;;;10.99;100.00
10946;BME280;5525;42.648;23.368;2022-10-24T00:35:06;95386.16;;;10.96;100.00
10946;BME280;5525;42.648;23.368;2022-10-24T00:37:35;95389.94;;;10.95;100.00
10946;BME280;5525;42.648;23.368;2022-10-24T00:40:03;95357.13;;;10.79;100.00
10946;BME280;5525;42.648;23.368;2022-10-24T00:42:30;95375.03;;;10.97;100.00
10946;BME280;5525;42.648;23.368;2022-10-24T00:44:57;95389.50;;;11.01;100.00
10946;BME280;5525;42.648;23.368;2022-10-24T00:47:27;95376.13;;;10.96;100.00
10946;BME280;5525;42.648;23.368;2022-10-24T00:50:02;95374.19;;;10.88;100.00
10946;BME280;5525;42.648;23.368;2022-10-24T00:52:32;95358.03;;;10.75;100.00
10946;BME280;5525;42.648;23.368;2022-10-24T00:55:02;95388.50;;;10.67;100.00
10946;BME280;5525;42.648;23.368;2022-10-24T00:57:33;95384.38;;;10.69;100.00
10946;BME280;5525;42.648;23.368;2022-10-24T01:00:10;95382.59;;;10.65;100.00
10946;BME280;5525;42.648;23.368;2022-10-24T01:02:38;95354.25;;;10.18;100.00
10946;BME280;5525;42.648;23.368;2022-10-24T01:05:06;95356.75;;;10.01;100.00
10946;BME280;5525;42.648;23.368;2022-10-24T01:07:42;95385.31;;;10.29;100.00
10946;BME280;5525;42.648;23.368;2022-10-24T01:10:29;95329.16;;;10.17;100.00
10946;BME280;5525;42.648;23.368;2022-10-24T01:13:08;95382.34;;;10.53;100.00
10946;BME280;5525;42.648;23.368;2022-10-24T01:15:41;95368.28;;;10.42;100.00
10946;BME280;5525;42.648;23.368;2022-10-24T01:18:15;95378.06;;;10.52;100.00
10946;BME280;5525;42.648;23.368;2022-10-24T01:21:02;95380.88;;;10.47;100.00
10946;BME280;5525;42.648;23.368;2022-10-24T01:27:24;95397.03;;;10.11;100.00
10946;BME280;5525;42.648;23.368;2022-10-24T01:30:02;95393.44;;;10.15;100.00
10946;BME280;5525;42.648;23.368;2022-10-24T01:32:35;95350.19;;;9.80;100.00
10946;BME280;5525;42.648;23.368;2022-10-24T01:35:09;95363.34;;;9.95;100.00
10946;BME280;5525;42.648;23.368;2022-10-24T01:37:41;95380.34;;;9.95;100.00
10946;BME280;5525;42.648;23.368;2022-10-24T01:40:12;95348.44;;;9.62;100.00
10946;BME280;5525;42.648;23.368;2022-10-24T01:42:40;95375.28;;;9.80;100.00
10946;BME280;5525;42.648;23.368;2022-10-24T01:45:14;95392.16;;;9.86;100.00
10946;BME280;5525;42.648;23.368;2022-10-24T01:47:47;95380.78;;;9.75;100.00
10946;BME280;5525;42.648;23.368;2022-10-24T01:50:17;95353.59;;;9.72;100.00
10946;BME280;5525;42.648;23.368;2022-10-24T01:52:47;95387.28;;;9.61;100.00
10946;BME280;5525;42.648;23.368;2022-10-24T01:55:14;95376.00;;;9.45;100.00
10946;BME280;5525;42.648;23.368;2022-10-24T01:57:41;95376.59;;;9.69;100.00
10946;BME280;5525;42.648;23.368;2022-10-24T02:00:13;95338.06;;;9.15;100.00
10946;BME280;5525;42.648;23.368;2022-10-24T02:02:42;95374.50;;;9.53;100.00
10946;BME280;5525;42.648;23.368;2022-10-24T02:05:15;95383.28;;;9.58;100.00
10946;BME280;5525;42.648;23.368;2022-10-24T02:07:46;95336.25;;;9.24;100.00
10946;BME280;5525;42.648;23.368;2022-10-24T02:10:18;95380.28;;;9.60;100.00
10946;BME280;5525;42.648;23.368;2022-10-24T02:12:48;95393.16;;;9.63;100.00
10946;BME280;5525;42.648;23.368;2022-10-24T02:15:22;95390.97;;;9.65;100.00
10946;BME280;5525;42.648;23.368;2022-10-24T02:17:51;95382.19;;;9.59;100.00
10946;BME280;5525;42.648;23.368;2022-10-24T02:20:20;95390.56;;;9.71;100.00
10946;BME280;5525;42.648;23.368;2022-10-24T02:22:51;95389.69;;;9.62;100.00
10946;BME280;5525;42.648;23.368;2022-10-24T02:25:23;95383.38;;;9.80;100.00
10946;BME280;5525;42.648;23.368;2022-10-24T02:27:57;95369.69;;;9.77;100.00
10946;BME280;5525;42.648;23.368;2022-10-24T02:30:34;95387.84;;;9.85;100.00
10946;BME280;5525;42.648;23.368;2022-10-24T02:33:02;95378.88;;;9.76;100.00
10946;BME280;5525;42.648;23.368;2022-10-24T02:35:31;95365.50;;;9.71;100.00
10946;BME280;5525;42.648;23.368;2022-10-24T02:38:05;95389.94;;;9.88;100.00
10946;BME280;5525;42.648;23.368;2022-10-24T02:40:34;95385.13;;;9.98;100.00
10946;BME280;5525;42.648;23.368;2022-10-24T02:43:03;95344.41;;;9.86;100.00
10946;BME280;5525;42.648;23.368;2022-10-24T02:45:33;95386.44;;;9.87;100.00
10946;BME280;5525;42.648;23.368;2022-10-24T02:48:04;95372.63;;;10.02;100.00
10946;BME280;5525;42.648;23.368;2022-10-24T02:50:32;95330.03;;;9.77;100.00
10946;BME280;5525;42.648;23.368;2022-10-24T02:53:00;95380.44;;;10.17;100.00
10946;BME280;5525;42.648;23.368;2022-10-24T02:55:27;95349.50;;;9.88;100.00
10946;BME280;5525;42.648;23.368;2022-10-24T02:57:54;95347.38;;;9.98;100.00
10946;BME280;5525;42.648;23.368;2022-10-24T03:00:21;95383.25;;;10.12;100.00
10946;BME280;5525;42.648;23.368;2022-10-24T03:02:49;95346.09;;;9.96;100.00
10946;BME280;5525;42.648;23.368;2022-10-24T03:05:18;95394.56;;;10.14;100.00
10946;BME280;5525;42.648;23.368;2022-10-24T03:07:45;95385.28;;;10.07;100.00
10946;BME280;5525;42.648;23.368;2022-10-24T03:10:11;95347.09;;;9.86;100.00
10946;BME280;5525;42.648;23.368;2022-10-24T03:12:38;95371.84;;;10.02;100.00
10946;BME280;5525;42.648;23.368;2022-10-24T03:15:06;95383.03;;;10.09;100.00
10946;BME280;5525;42.648;23.368;2022-10-24T03:17:33;95375.38;;;9.75;100.00
10946;BME280;5525;42.648;23.368;2022-10-24T03:20:01;95369.88;;;9.80;100.00
10946;BME280;5525;42.648;23.368;2022-10-24T03:22:28;95386.16;;;9.89;100.00
10946;BME280;5525;42.648;23.368;2022-10-24T03:24:55;95358.72;;;9.46;100.00
10946;BME280;5525;42.648;23.368;2022-10-24T03:27:26;95364.69;;;9.57;100.00
10946;BME280;5525;42.648;23.368;2022-10-24T03:29:52;95335.44;;;9.50;100.00
10946;BME280;5525;42.648;23.368;2022-10-24T03:32:19;95374.28;;;9.63;100.00
10946;BME280;5525;42.648;23.368;2022-10-24T03:34:46;95377.78;;;9.50;100.00
10946;BME280;5525;42.648;23.368;2022-10-24T03:37:15;95378.00;;;9.67;100.00
10946;BME280;5525;42.648;23.368;2022-10-24T03:39:42;95326.31;;;8.92;100.00
10946;BME280;5525;42.648;23.368;2022-10-24T03:42:09;95386.56;;;9.55;100.00
10946;BME280;5525;42.648;23.368;2022-10-24T03:44:35;95346.13;;;9.42;100.00
10946;BME280;5525;42.648;23.368;2022-10-24T03:47:02;95378.38;;;9.60;100.00
10946;BME280;5525;42.648;23.368;2022-10-24T03:49:29;95382.59;;;9.39;100.00
10946;BME280;5525;42.648;23.368;2022-10-24T03:51:56;95364.41;;;9.31;100.00
10946;BME280;5525;42.648;23.368;2022-10-24T03:54:25;95368.47;;;9.29;100.00
10946;BME280;5525;42.648;23.368;2022-10-24T03:56:51;95346.53;;;9.35;100.00
10946;BME280;5525;42.648;23.368;2022-10-24T03:59:18;95348.53;;;9.43;100.00
10946;BME280;5525;42.648;23.368;2022-10-24T04:01:45;95372.88;;;9.38;100.00
10946;BME280;5525;42.648;23.368;2022-10-24T04:04:12;95354.00;;;9.38;100.00
10946;BME280;5525;42.648;23.368;2022-10-24T04:06:39;95332.75;;;9.23;100.00
10946;BME280;5525;42.648;23.368;2022-10-24T04:09:07;95366.19;;;9.36;100.00
10946;BME280;5525;42.648;23.368;2022-10-24T04:11:35;95330.66;;;9.07;100.00
10946;BME280;5525;42.648;23.368;2022-10-24T04:14:02;95344.81;;;9.26;100.00
10946;BME280;5525;42.648;23.368;2022-10-24T04:16:30;95326.25;;;9.11;100.00
10946;BME280;5525;42.648;23.368;2022-10-24T04:18:59;95322.66;;;9.02;100.00
10946;BME280;5525;42.648;23.368;2022-10-24T04:21:26;95366.59;;;9.29;100.00
10946;BME280;5525;42.648;23.368;2022-10-24T04:23:52;95343.72;;;9.13;100.00
10946;BME280;5525;42.648;23.368;2022-10-24T04:26:20;95373.38;;;9.40;100.00
10946;BME280;5525;42.648;23.368;2022-10-24T04:28:48;95334.56;;;9.28;100.00
10946;BME280;5525;42.648;23.368;2022-10-24T04:31:15;95351.44;;;9.47;100.00
10946;BME280;5525;42.648;23.368;2022-10-24T04:33:42;95378.78;;;9.54;100.00
10946;BME280;5525;42.648;23.368;2022-10-24T04:36:09;95321.69;;;9.25;100.00
10946;BME280;5525;42.648;23.368;2022-10-24T04:38:37;95377.47;;;9.65;100.00
10946;BME280;5525;42.648;23.368;2022-10-24T04:41:04;95380.38;;;9.68;100.00
10946;BME280;5525;42.648;23.368;2022-10-24T04:43:31;95387.16;;;9.66;100.00
10946;BME280;5525;42.648;23.368;2022-10-24T04:45:59;95383.56;;;9.57;100.00
10946;BME280;5525;42.648;23.368;2022-10-24T04:48:28;95388.75;;;9.40;100.00
10946;BME280;5525;42.648;23.368;2022-10-24T04:50:55;95327.41;;;8.78;100.00
10946;BME280;5525;42.648;23.368;2022-10-24T04:53:22;95395.31;;;9.20;100.00
10946;BME280;5525;42.648;23.368;2022-10-24T04:55:48;95352.28;;;9.02;100.00
10946;BME280;5525;42.648;23.368;2022-10-24T04:58:15;95373.06;;;9.15;100.00
10946;BME280;5525;42.648;23.368;2022-10-24T05:00:42;95379.66;;;9.22;100.00
10946;BME280;5525;42.648;23.368;2022-10-24T05:03:14;95388.66;;;9.45;100.00
10946;BME280;5525;42.648;23.368;2022-10-24T05:05:41;95340.94;;;9.18;100.00
10946;BME280;5525;42.648;23.368;2022-10-24T05:08:08;95387.16;;;9.39;100.00
10946;BME280;5525;42.648;23.368;2022-10-24T05:10:35;95393.66;;;9.65;100.00
10946;BME280;5525;42.648;23.368;2022-10-24T05:13:02;95399.66;;;9.75;100.00
10946;BME280;5525;42.648;23.368;2022-10-24T05:15:29;95348.75;;;9.47;100.00
10946;BME280;5525;42.648;23.368;2022-10-24T05:17:55;95373.47;;;9.76;100.00
10946;BME280;5525;42.648;23.368;2022-10-24T05:20:24;95388.13;;;9.97;100.00
10946;BME280;5525;42.648;23.368;2022-10-24T05:22:51;95372.84;;;9.92;100.00
10946;BME280;5525;42.648;23.368;2022-10-24T05:25:18;95392.53;;;10.20;100.00
10946;BME280;5525;42.648;23.368;2022-10-24T05:27:45;95358.16;;;10.12;100.00
10946;BME280;5525;42.648;23.368;2022-10-24T05:30:12;95386.69;;;10.40;100.00
10946;BME280;5525;42.648;23.368;2022-10-24T05:32:40;95384.03;;;10.49;100.00
10946;BME280;5525;42.648;23.368;2022-10-24T05:35:07;95397.50;;;10.62;100.00
10946;BME280;5525;42.648;23.368;2022-10-24T05:37:36;95357.13;;;10.21;100.00
10946;BME280;5525;42.648;23.368;2022-10-24T05:40:04;95382.59;;;10.65;100.00
10946;BME280;5525;42.648;23.368;2022-10-24T05:42:31;95388.22;;;10.77;100.00
10946;BME280;5525;42.648;23.368;2022-10-24T05:44:57;95395.16;;;10.69;100.00
10946;BME280;5525;42.648;23.368;2022-10-24T05:47:24;95392.88;;;10.63;100.00
10946;BME280;5525;42.648;23.368;2022-10-24T05:49:51;95400.66;;;10.78;100.00
10946;BME280;5525;42.648;23.368;2022-10-24T05:52:19;95403.16;;;10.74;100.00
10946;BME280;5525;42.648;23.368;2022-10-24T05:54:47;95396.59;;;10.67;100.00
10946;BME280;5525;42.648;23.368;2022-10-24T05:57:14;95368.19;;;10.34;100.00
10946;BME280;5525;42.648;23.368;2022-10-24T05:59:41;95416.44;;;10.13;100.00
10946;BME280;5525;42.648;23.368;2022-10-24T06:02:11;95381.16;;;10.09;100.00
10946;BME280;5525;42.648;23.368;2022-10-24T06:04:42;95417.50;;;10.25;100.00
10946;BME280;5525;42.648;23.368;2022-10-24T06:07:09;95429.38;;;10.38;100.00
10946;BME280;5525;42.648;23.368;2022-10-24T06:09:36;95403.53;;;10.46;100.00
10946;BME280;5525;42.648;23.368;2022-10-24T06:12:05;95403.25;;;10.47;100.00
10946;BME280;5525;42.648;23.368;2022-10-24T06:14:33;95432.84;;;10.52;100.00
10946;BME280;5525;42.648;23.368;2022-10-24T06:16:59;95411.44;;;10.56;100.00
10946;BME280;5525;42.648;23.368;2022-10-24T06:19:26;95402.94;;;10.49;100.00
10946;BME280;5525;42.648;23.368;2022-10-24T06:21:53;95402.22;;;10.57;100.00
10946;BME280;5525;42.648;23.368;2022-10-24T06:24:20;95392.78;;;10.90;100.00
10946;BME280;5525;42.648;23.368;2022-10-24T06:26:48;95353.75;;;10.52;100.00
10946;BME280;5525;42.648;23.368;2022-10-24T06:29:16;95427.84;;;11.25;100.00
10946;BME280;5525;42.648;23.368;2022-10-24T06:31:43;95419.66;;;11.47;100.00
10946;BME280;5525;42.648;23.368;2022-10-24T06:34:10;95428.50;;;11.61;100.00
10946;BME280;5525;42.648;23.368;2022-10-24T06:36:36;95430.03;;;11.76;100.00
10946;BME280;5525;42.648;23.368;2022-10-24T06:39:03;95434.06;;;11.96;100.00
10946;BME280;5525;42.648;23.368;2022-10-24T06:41:30;95429.22;;;12.15;100.00
10946;BME280;5525;42.648;23.368;2022-10-24T06:43:58;95441.69;;;12.50;100.00
10946;BME280;5525;42.648;23.368;2022-10-24T06:46:26;95441.88;;;12.62;100.00
10946;BME280;5525;42.648;23.368;2022-10-24T06:48:53;95418.06;;;12.33;100.00
10946;BME280;5525;42.648;23.368;2022-10-24T06:51:20;95435.34;;;12.80;100.00
10946;BME280;5525;42.648;23.368;2022-10-24T06:53:48;95389.75;;;12.65;100.00
10946;BME280;5525;42.648;23.368;2022-10-24T06:56:15;95407.59;;;12.83;100.00
10946;BME280;5525;42.648;23.368;2022-10-24T06:58:43;95450.97;;;13.34;100.00
10946;BME280;5525;42.648;23.368;2022-10-24T07:01:11;95450.94;;;13.42;100.00
10946;BME280;5525;42.648;23.368;2022-10-24T07:03:41;95431.50;;;13.40;100.00
10946;BME280;5525;42.648;23.368;2022-10-24T07:06:09;95421.41;;;13.49;100.00
10946;BME280;5525;42.648;23.368;2022-10-24T07:08:36;95424.09;;;13.67;100.00
10946;BME280;5525;42.648;23.368;2022-10-24T07:11:03;95448.38;;;14.01;100.00
10946;BME280;5525;42.648;23.368;2022-10-24T07:13:30;95448.94;;;14.15;100.00
10946;BME280;5525;42.648;23.368;2022-10-24T07:15:57;95410.03;;;14.02;100.00
10946;BME280;5525;42.648;23.368;2022-10-24T07:18:24;95444.19;;;14.41;100.00
10946;BME280;5525;42.648;23.368;2022-10-24T07:20:53;95450.66;;;14.57;100.00
10946;BME280;5525;42.648;23.368;2022-10-24T07:23:20;95434.84;;;14.59;100.00
10946;BME280;5525;42.648;23.368;2022-10-24T07:25:47;95438.94;;;14.85;100.00
10946;BME280;5525;42.648;23.368;2022-10-24T07:28:13;95440.28;;;14.59;100.00
10946;BME280;5525;42.648;23.368;2022-10-24T07:30:43;95441.59;;;14.73;100.00
10946;BME280;5525;42.648;23.368;2022-10-24T07:33:10;95435.22;;;14.90;100.00
10946;BME280;5525;42.648;23.368;2022-10-24T07:35:40;95435.31;;;15.02;100.00
10946;BME280;5525;42.648;23.368;2022-10-24T07:38:09;95442.00;;;14.63;100.00
10946;BME280;5525;42.648;23.368;2022-10-24T07:40:36;95437.88;;;14.98;100.00
10946;BME280;5525;42.648;23.368;2022-10-24T07:43:03;95415.50;;;15.13;100.00
10946;BME280;5525;42.648;23.368;2022-10-24T07:45:30;95422.34;;;15.40;100.00
10946;BME280;5525;42.648;23.368;2022-10-24T07:47:57;95439.16;;;15.54;100.00
10946;BME280;5525;42.648;23.368;2022-10-24T07:50:25;95449.69;;;15.23;100.00
10946;BME280;5525;42.648;23.368;2022-10-24T07:52:51;95444.09;;;15.40;100.00
10946;BME280;5525;42.648;23.368;2022-10-24T07:55:19;95402.97;;;15.54;100.00
10946;BME280;5525;42.648;23.368;2022-10-24T07:57:46;95420.69;;;15.72;99.20
10946;BME280;5525;42.648;23.368;2022-10-24T08:00:15;95430.91;;;15.75;97.66
10946;BME280;5525;42.648;23.368;2022-10-24T08:02:42;95412.44;;;15.80;97.64
10946;BME280;5525;42.648;23.368;2022-10-24T08:05:10;95407.63;;;15.53;97.30
10946;BME280;5525;42.648;23.368;2022-10-24T08:07:37;95432.34;;;16.17;95.61
10946;BME280;5525;42.648;23.368;2022-10-24T08:10:05;95430.75;;;16.64;92.32
10946;BME280;5525;42.648;23.368;2022-10-24T08:12:36;95412.69;;;16.59;88.81
10946;BME280;5525;42.648;23.368;2022-10-24T08:15:04;95427.91;;;16.72;88.08
10946;BME280;5525;42.648;23.368;2022-10-24T08:17:31;95430.38;;;16.90;87.38
10946;BME280;5525;42.648;23.368;2022-10-24T08:19:58;95426.00;;;17.01;84.86
10946;BME280;5525;42.648;23.368;2022-10-24T08:22:25;95394.00;;;16.85;82.30
10946;BME280;5525;42.648;23.368;2022-10-24T08:24:54;95425.31;;;17.16;81.85
10946;BME280;5525;42.648;23.368;2022-10-24T08:27:22;95428.28;;;17.38;79.52
10946;BME280;5525;42.648;23.368;2022-10-24T08:29:50;95421.91;;;17.46;77.88
10946;BME280;5525;42.648;23.368;2022-10-24T08:32:23;95394.28;;;17.36;78.46
10946;BME280;5525;42.648;23.368;2022-10-24T08:34:50;95430.31;;;17.69;75.44
10946;BME280;5525;42.648;23.368;2022-10-24T08:37:17;95412.47;;;17.32;77.70
10946;BME280;5525;42.648;23.368;2022-10-24T08:39:44;95361.19;;;17.37;74.71
10946;BME280;5525;42.648;23.368;2022-10-24T08:42:13;95406.97;;;17.87;72.51
10946;BME280;5525;42.648;23.368;2022-10-24T08:44:43;95421.00;;;18.01;71.28
10946;BME280;5525;42.648;23.368;2022-10-24T08:47:19;95388.31;;;17.89;69.63
10946;BME280;5525;42.648;23.368;2022-10-24T08:49:56;95386.28;;;18.17;68.23
10946;BME280;5525;42.648;23.368;2022-10-24T08:52:29;95399.22;;;18.35;67.33
10946;BME280;5525;42.648;23.368;2022-10-24T08:54:59;95396.50;;;18.35;66.40
10946;BME280;5525;42.648;23.368;2022-10-24T08:57:31;95397.81;;;18.57;65.52
10946;BME280;5525;42.648;23.368;2022-10-24T09:00:01;95394.41;;;18.64;64.65
10946;BME280;5525;42.648;23.368;2022-10-24T09:02:36;95360.28;;;17.92;66.61
10946;BME280;5525;42.648;23.368;2022-10-24T09:05:16;95383.94;;;18.50;64.79
10946;BME280;5525;42.648;23.368;2022-10-24T09:07:48;95346.91;;;18.37;64.67
10946;BME280;5525;42.648;23.368;2022-10-24T09:10:21;95384.00;;;18.69;64.38
10946;BME280;5525;42.648;23.368;2022-10-24T09:12:54;95387.41;;;19.01;62.80
10946;BME280;5525;42.648;23.368;2022-10-24T09:15:25;95365.09;;;19.18;61.25
10946;BME280;5525;42.648;23.368;2022-10-24T09:17:58;95373.69;;;19.35;60.71
10946;BME280;5525;42.648;23.368;2022-10-24T09:20:27;95376.09;;;19.59;59.51
10946;BME280;5525;42.648;23.368;2022-10-24T09:22:59;95386.59;;;19.76;58.62
10946;BME280;5525;42.648;23.368;2022-10-24T09:25:31;95382.22;;;19.72;58.71
10946;BME280;5525;42.648;23.368;2022-10-24T09:28:02;95365.22;;;19.85;57.11
10946;BME280;5525;42.648;23.368;2022-10-24T09:30:30;95356.56;;;19.83;56.39
10946;BME280;5525;42.648;23.368;2022-10-24T09:33:13;95341.41;;;19.89;55.91
10946;BME280;5525;42.648;23.368;2022-10-24T09:35:48;95381.22;;;19.83;56.13
10946;BME280;5525;42.648;23.368;2022-10-24T09:38:30;95371.81;;;20.26;55.57
10946;BME280;5525;42.648;23.368;2022-10-24T09:41:01;95350.88;;;20.41;54.42
10946;BME280;5525;42.648;23.368;2022-10-24T09:43:38;95342.16;;;20.61;53.49
10946;BME280;5525;42.648;23.368;2022-10-24T09:46:10;95370.72;;;22.66;48.41
10946;BME280;5525;42.648;23.368;2022-10-24T09:48:53;95357.50;;;27.67;37.07
10946;BME280;5525;42.648;23.368;2022-10-24T09:51:26;95382.97;;;32.27;29.47
10946;BME280;5525;42.648;23.368;2022-10-24T09:54:09;95332.44;;;34.66;25.48
10946;BME280;5525;42.648;23.368;2022-10-24T09:56:55;95357.16;;;36.24;22.71
10946;BME280;5525;42.648;23.368;2022-10-24T09:59:30;95335.25;;;37.50;21.30
10946;BME280;5525;42.648;23.368;2022-10-24T10:02:20;95378.00;;;39.77;20.08
10946;BME280;5525;42.648;23.368;2022-10-24T10:05:13;95388.41;;;38.97;19.28
10946;BME280;5525;42.648;23.368;2022-10-24T10:07:42;95396.81;;;40.26;18.94
10946;BME280;5525;42.648;23.368;2022-10-24T10:10:24;95345.94;;;40.63;18.41
10946;BME280;5525;42.648;23.368;2022-10-24T10:12:56;95379.69;;;40.15;17.66
10946;BME280;5525;42.648;23.368;2022-10-24T10:15:28;95328.34;;;38.32;19.33
10946;BME280;5525;42.648;23.368;2022-10-24T10:18:00;95369.78;;;40.25;17.98
10946;BME280;5525;42.648;23.368;2022-10-24T10:20:32;95367.50;;;40.55;17.55
10946;BME280;5525;42.648;23.368;2022-10-24T10:23:22;95346.59;;;39.75;18.09
10946;BME280;5525;42.648;23.368;2022-10-24T10:26:05;95354.50;;;40.17;17.99
10946;BME280;5525;42.648;23.368;2022-10-24T10:28:39;95339.88;;;41.12;17.41
10946;BME280;5525;42.648;23.368;2022-10-24T10:31:08;95360.75;;;41.09;16.97
10946;BME280;5525;42.648;23.368;2022-10-24T10:33:42;95328.72;;;41.03;16.84
10946;BME280;5525;42.648;23.368;2022-10-24T10:36:18;95303.38;;;41.95;16.27
10946;BME280;5525;42.648;23.368;2022-10-24T10:38:51;95347.59;;;42.73;16.10
10946;BME280;5525;42.648;23.368;2022-10-24T10:41:36;95347.50;;;41.00;17.16
10946;BME280;5525;42.648;23.368;2022-10-24T10:44:34;95337.09;;;39.53;18.11
10946;BME280;5525;42.648;23.368;2022-10-24T10:47:14;95309.22;;;38.71;18.72
10946;BME280;5525;42.648;23.368;2022-10-24T10:49:44;95318.06;;;39.99;17.96
10946;BME280;5525;42.648;23.368;2022-10-24T10:52:21;95313.53;;;41.06;17.10
10946;BME280;5525;42.648;23.368;2022-10-24T10:55:03;95302.63;;;41.35;16.72
10946;BME280;5525;42.648;23.368;2022-10-24T10:57:39;95277.38;;;41.43;16.72
10946;BME280;5525;42.648;23.368;2022-10-24T11:00:23;95288.31;;;40.09;17.54
10946;BME280;5525;42.648;23.368;2022-10-24T11:02:58;95316.72;;;40.20;17.36
10946;BME280;5525;42.648;23.368;2022-10-24T11:05:36;95307.84;;;40.64;17.23
10946;BME280;5525;42.648;23.368;2022-10-24T11:08:23;95296.50;;;36.65;20.28
10946;BME280;5525;42.648;23.368;2022-10-24T11:10:58;95292.75;;;37.39;19.85
10946;BME280;5525;42.648;23.368;2022-10-24T11:13:32;95274.03;;;37.12;20.08
10946;BME280;5525;42.648;23.368;2022-10-24T11:16:03;95261.88;;;38.81;18.69
10946;BME280;5525;42.648;23.368;2022-10-24T11:18:34;95285.53;;;37.23;20.18
10946;BME280;5525;42.648;23.368;2022-10-24T11:21:05;95279.38;;;36.86;20.09
10946;BME280;5525;42.648;23.368;2022-10-24T11:23:38;95273.28;;;35.45;21.57
10946;BME280;5525;42.648;23.368;2022-10-24T11:26:09;95277.00;;;37.99;19.85
10946;BME280;5525;42.648;23.368;2022-10-24T11:28:42;95274.47;;;39.20;18.44
10946;BME280;5525;42.648;23.368;2022-10-24T11:31:13;95221.28;;;38.78;18.71
10946;BME280;5525;42.648;23.368;2022-10-24T11:33:45;95263.50;;;38.67;18.65
10946;BME280;5525;42.648;23.368;2022-10-24T11:36:19;95260.09;;;37.70;19.31
10946;BME280;5525;42.648;23.368;2022-10-24T11:38:56;95242.16;;;38.17;19.22
10946;BME280;5525;42.648;23.368;2022-10-24T11:41:32;95218.53;;;38.00;19.18
10946;BME280;5525;42.648;23.368;2022-10-24T11:44:10;95230.41;;;38.53;18.94
10946;BME280;5525;42.648;23.368;2022-10-24T11:46:43;95215.94;;;38.45;18.57
10946;BME280;5525;42.648;23.368;2022-10-24T11:49:21;95242.63;;;38.30;18.93
10946;BME280;5525;42.648;23.368;2022-10-24T11:51:51;95232.09;;;36.67;20.08
10946;BME280;5525;42.648;23.368;2022-10-24T11:54:33;95207.34;;;35.73;20.86
10946;BME280;5525;42.648;23.368;2022-10-24T11:57:10;95231.59;;;35.52;21.67
10946;BME280;5525;42.648;23.368;2022-10-24T11:59:39;95211.63;;;35.50;21.54
10946;BME280;5525;42.648;23.368;2022-10-24T12:05:22;95216.75;;;36.12;20.82
10946;BME280;5525;42.648;23.368;2022-10-24T12:08:25;95222.25;;;35.97;21.40
10946;BME280;5525;42.648;23.368;2022-10-24T12:14:17;95193.41;;;34.83;22.38
10946;BME280;5525;42.648;23.368;2022-10-24T12:17:03;95207.88;;;35.44;21.81
10946;BME280;5525;42.648;23.368;2022-10-24T12:19:34;95215.34;;;35.65;21.61
10946;BME280;5525;42.648;23.368;2022-10-24T12:22:05;95191.34;;;32.94;24.40
10946;BME280;5525;42.648;23.368;2022-10-24T12:24:34;95164.66;;;31.50;25.95
10946;BME280;5525;42.648;23.368;2022-10-24T12:27:04;95189.78;;;33.15;24.50
10946;BME280;5525;42.648;23.368;2022-10-24T12:29:35;95165.69;;;32.40;25.12
10946;BME280;5525;42.648;23.368;2022-10-24T12:32:21;95186.31;;;32.21;25.60
10946;BME280;5525;42.648;23.368;2022-10-24T12:35:02;95182.78;;;32.54;25.05
10946;BME280;5525;42.648;23.368;2022-10-24T12:37:32;95141.59;;;32.21;25.21
10946;BME280;5525;42.648;23.368;2022-10-24T12:43:15;95146.00;;;30.80;26.64
10946;BME280;5525;42.648;23.368;2022-10-24T12:45:53;95174.59;;;30.08;28.29
10946;BME280;5525;42.648;23.368;2022-10-24T12:48:34;95177.63;;;30.29;28.11
10946;BME280;5525;42.648;23.368;2022-10-24T12:51:26;95172.78;;;29.33;29.75
10946;BME280;5525;42.648;23.368;2022-10-24T12:54:03;95144.31;;;29.10;29.88
10946;BME280;5525;42.648;23.368;2022-10-24T12:56:33;95164.63;;;28.45;30.67
10946;BME280;5525;42.648;23.368;2022-10-24T12:59:16;95143.22;;;28.02;31.30
10946;BME280;5525;42.648;23.368;2022-10-24T13:01:47;95148.22;;;28.11;31.24
10946;BME280;5525;42.648;23.368;2022-10-24T13:04:45;95140.25;;;27.40;32.62
10946;BME280;5525;42.648;23.368;2022-10-24T13:07:34;95151.56;;;27.53;32.31
10946;BME280;5525;42.648;23.368;2022-10-24T13:10:26;95158.41;;;27.18;33.19
10946;BME280;5525;42.648;23.368;2022-10-24T13:13:20;95154.13;;;26.50;34.27
10946;BME280;5525;42.648;23.368;2022-10-24T13:15:55;95155.44;;;26.38;34.54
10946;BME280;5525;42.648;23.368;2022-10-24T13:18:40;95151.22;;;25.83;35.68
10946;BME280;5525;42.648;23.368;2022-10-24T13:21:21;95154.38;;;25.30;37.10
10946;BME280;5525;42.648;23.368;2022-10-24T13:23:50;95136.94;;;25.44;36.80
10946;BME280;5525;42.648;23.368;2022-10-24T13:26:36;95119.38;;;25.13;36.82
10946;BME280;5525;42.648;23.368;2022-10-24T13:29:04;95148.91;;;25.23;37.34
10946;BME280;5525;42.648;23.368;2022-10-24T13:31:41;95148.47;;;25.32;36.86